createdAt,value
2018-04-16T19:11:19.839Z,50.7
2018-04-16T19:12:21.446Z,51.6
2018-04-16T19:13:23.016Z,46.8
2018-04-16T19:14:24.585Z,47.3
2018-04-16T19:15:26.156Z,45.6
2018-04-16T19:16:27.731Z,44.3
2018-04-16T19:17:29.293Z,44.5
2018-04-16T19:18:30.888Z,44.8
2018-04-16T19:19:32.483Z,45.3
2018-04-16T19:20:34.052Z,43.5
2018-04-16T19:21:35.645Z,44.1
2018-04-16T19:22:37.215Z,48.4
2018-04-16T19:23:38.785Z,47.5
2018-04-16T19:24:40.357Z,47.6
2018-04-16T19:25:41.926Z,46.5
2018-04-16T19:26:43.526Z,44.3
2018-04-16T19:27:45.105Z,44.1
2018-04-16T19:28:46.686Z,46.1
2018-04-16T19:29:48.257Z,49.3
2018-04-16T19:30:49.894Z,48.4
2018-04-16T19:31:51.428Z,48.6
2018-04-16T19:32:53.017Z,50.2
2018-04-16T19:33:54.582Z,52.7
2018-04-16T19:34:56.161Z,50.4
2018-04-16T19:35:57.730Z,47.9
2018-04-16T19:36:59.292Z,47.4
2018-04-16T19:38:00.852Z,49.0
2018-04-16T19:39:02.407Z,52.3
2018-04-16T19:40:03.988Z,50.2
2018-04-16T19:41:05.572Z,49.8
2018-04-16T19:42:07.147Z,48.4
2018-04-16T19:43:08.771Z,48.8
2018-04-16T19:44:10.265Z,50.4
2018-04-16T19:45:11.831Z,51.4
2018-04-16T19:46:13.466Z,52.7
2018-04-16T19:47:15.025Z,53.4
2018-04-16T19:48:16.776Z,50.4
2018-04-16T19:49:18.349Z,48.4
2018-04-16T19:50:19.914Z,48.4
2018-04-16T19:51:21.527Z,45.5
2018-04-16T19:52:23.103Z,42.6
2018-04-16T19:53:24.662Z,41.9
2018-04-16T19:54:26.232Z,41.3
2018-04-16T19:55:27.797Z,41.6
2018-04-16T19:56:29.370Z,44.2
2018-04-16T19:57:30.938Z,45.0
2018-04-16T19:58:32.516Z,44.8
2018-04-16T19:59:34.093Z,44.3
2018-04-16T20:00:35.656Z,43.7
2018-04-16T20:01:37.221Z,44.0
2018-04-16T20:02:38.789Z,45.3
2018-04-16T20:03:40.359Z,44.2
2018-04-16T20:04:41.926Z,43.0
2018-04-16T20:05:43.491Z,43.0
2018-04-16T20:06:45.067Z,43.8
2018-04-16T20:07:46.640Z,43.1
2018-04-16T20:08:48.219Z,43.6
2018-04-16T20:09:49.787Z,42.9
2018-04-16T20:10:51.396Z,41.8
2018-04-16T20:11:53.000Z,44.5
2018-04-16T20:12:54.794Z,41.9
2018-04-16T20:13:56.482Z,41.1
2018-04-16T20:14:58.136Z,41.0
2018-04-16T20:15:59.786Z,41.1
2018-04-16T20:17:01.437Z,40.5
2018-04-16T20:18:03.098Z,41.7
2018-04-16T20:19:04.740Z,40.2
2018-04-16T20:20:06.708Z,42.2
2018-04-16T20:21:08.390Z,41.9
2018-04-16T20:22:10.193Z,39.7
2018-04-16T20:23:12.060Z,38.1
2018-04-16T20:24:13.730Z,39.1
2018-04-16T20:25:15.366Z,38.7
2018-04-16T20:26:17.528Z,38.9
2018-04-16T20:27:19.128Z,38.2
2018-04-16T20:28:20.849Z,43.8
2018-04-16T20:29:22.661Z,47.0
2018-04-16T20:30:24.627Z,46.4
2018-04-16T20:31:31.974Z,48.8
2018-04-16T20:32:33.603Z,48.5
2018-04-16T20:33:36.331Z,49.1
2018-04-16T20:34:37.986Z,47.3
2018-04-16T20:35:40.370Z,45.9
2018-04-16T20:36:41.968Z,42.6
2018-04-16T20:37:43.832Z,41.1
2018-04-16T20:38:45.314Z,42.0
2018-04-16T20:39:46.884Z,41.7
2018-04-16T20:40:48.637Z,40.7
2018-04-16T20:41:50.215Z,39.9
2018-04-16T20:42:54.145Z,38.6
2018-04-16T20:43:56.120Z,38.2
2018-04-16T20:44:57.702Z,39.0
2018-04-16T20:45:59.426Z,38.6
2018-04-16T20:47:02.501Z,39.3
2018-04-16T20:48:04.801Z,39.0
2018-04-16T20:49:06.410Z,38.4
2018-04-16T20:50:07.975Z,37.6
2018-04-16T20:51:09.584Z,39.8
2018-04-16T20:52:11.209Z,40.7
2018-04-16T20:53:12.859Z,40.9
2018-04-16T20:54:14.430Z,40.3
2018-04-16T20:55:16.010Z,42.4
2018-04-16T20:56:17.584Z,41.4
2018-04-16T20:57:19.153Z,43.3
2018-04-16T20:58:20.724Z,45.2
2018-04-16T20:59:22.286Z,46.0
2018-04-16T21:00:23.862Z,46.0
2018-04-16T21:01:25.446Z,47.2
2018-04-16T21:02:27.025Z,47.5
2018-04-16T21:03:28.615Z,47.8
2018-04-16T21:04:30.183Z,48.5
2018-04-16T21:05:31.760Z,48.8
2018-04-16T21:06:33.370Z,49.7
2018-04-16T21:07:34.987Z,47.6
2018-04-16T21:08:36.571Z,50.0
2018-04-16T21:09:38.174Z,51.2
2018-04-16T21:10:39.786Z,49.3
2018-04-16T21:11:41.448Z,49.1
2018-04-16T21:12:43.017Z,48.2
2018-04-16T21:13:44.610Z,50.8
2018-04-16T21:14:46.221Z,47.7
2018-04-16T21:15:47.823Z,45.9
2018-04-16T21:16:49.447Z,47.2
2018-04-16T21:17:51.184Z,45.9
2018-04-16T21:18:52.796Z,45.1
2018-04-16T21:19:54.442Z,45.1
2018-04-16T21:20:56.013Z,44.5
2018-04-16T21:21:57.577Z,44.5
2018-04-16T21:22:59.141Z,45.8
2018-04-16T21:24:00.803Z,44.0
2018-04-16T21:25:02.383Z,43.0
2018-04-16T21:26:03.978Z,41.8
2018-04-16T21:27:05.564Z,41.0
2018-04-16T21:28:09.059Z,40.6
2018-04-16T21:29:10.619Z,39.2
2018-04-16T21:30:12.226Z,39.1
2018-04-16T21:31:13.795Z,38.5
2018-04-16T21:32:15.361Z,39.0
2018-04-16T21:33:16.937Z,38.5
2018-04-16T21:34:18.520Z,37.7
2018-04-16T21:35:20.146Z,39.1
2018-04-16T21:36:21.664Z,40.3
2018-04-16T21:37:23.248Z,40.5
2018-04-16T21:38:24.821Z,39.2
2018-04-16T21:39:26.374Z,37.3
2018-04-16T21:40:27.940Z,35.7
2018-04-16T21:41:29.502Z,35.0
2018-04-16T21:42:31.069Z,33.6
2018-04-16T21:43:32.638Z,32.8
2018-04-16T21:44:34.255Z,32.2
2018-04-16T21:45:35.819Z,31.5
2018-04-16T21:46:37.628Z,31.0
2018-04-16T21:47:39.475Z,29.7
2018-04-16T21:48:41.286Z,28.9
2018-04-16T21:49:42.957Z,28.7
2018-04-16T21:50:44.603Z,28.4
2018-04-16T21:51:46.341Z,27.7
2018-04-16T21:52:47.918Z,26.4
2018-04-16T21:53:49.669Z,26.4
2018-04-16T21:54:51.380Z,26.4
2018-04-16T21:55:53.125Z,25.7
2018-04-16T21:56:54.842Z,25.8
2018-04-16T21:57:56.405Z,25.6
2018-04-16T21:58:57.975Z,25.0
2018-04-16T21:59:59.569Z,26.3
2018-04-16T22:01:01.373Z,25.8
2018-04-16T22:02:03.125Z,24.4
2018-04-16T22:03:04.842Z,23.1
2018-04-16T22:04:06.410Z,22.7
2018-04-16T22:05:08.397Z,21.9
2018-04-16T22:06:09.867Z,22.2
2018-04-16T22:07:12.142Z,22.8
2018-04-16T22:08:14.011Z,22.1
2018-04-16T22:09:15.722Z,22.1
2018-04-16T22:10:17.286Z,22.0
2018-04-16T22:11:18.863Z,20.8
2018-04-16T22:12:20.439Z,20.9
2018-04-16T22:13:22.266Z,21.0
2018-04-16T22:14:23.964Z,20.6
2018-04-16T22:15:25.619Z,21.2
2018-04-16T22:16:27.197Z,20.2
2018-04-16T22:17:28.899Z,20.0
2018-04-16T22:18:30.464Z,20.2
2018-04-16T22:19:32.143Z,20.3
2018-04-16T22:20:33.956Z,19.8
2018-04-16T22:21:35.732Z,19.5
2018-04-16T22:22:37.302Z,18.8
2018-04-16T22:23:38.880Z,18.3
2018-04-16T22:24:40.437Z,20.8
2018-04-16T22:25:42.022Z,21.7
2018-04-16T22:26:43.775Z,21.4
2018-04-16T22:27:45.485Z,21.0
2018-04-16T22:28:47.068Z,19.1
2018-04-16T22:29:48.670Z,18.0
2018-04-16T22:30:50.525Z,17.5
2018-04-16T22:31:52.053Z,17.2
2018-04-16T22:32:53.912Z,16.6
2018-04-16T22:33:55.556Z,15.7
2018-04-16T22:34:57.357Z,17.2
2018-04-16T22:35:58.992Z,16.8
2018-04-16T22:37:00.644Z,17.2
2018-04-16T22:38:02.211Z,15.9
2018-04-16T22:39:03.891Z,16.6
2018-04-16T22:40:05.700Z,15.7
2018-04-16T22:41:07.383Z,15.5
2018-04-16T22:42:08.994Z,14.4
2018-04-16T22:43:10.596Z,14.6
2018-04-16T22:44:12.184Z,13.7
2018-04-16T22:45:13.765Z,12.4
2018-04-16T22:46:15.573Z,12.9
2018-04-16T22:47:17.377Z,13.0
2018-04-16T22:48:18.945Z,12.0
2018-04-16T22:49:20.536Z,11.2
2018-04-16T22:50:22.120Z,10.9
2018-04-16T22:51:23.684Z,10.4
2018-04-16T22:52:25.241Z,8.5
2018-04-16T22:53:26.829Z,7.6
2018-04-16T22:54:28.390Z,7.2
2018-04-16T22:55:30.150Z,6.8
2018-04-16T22:56:31.731Z,6.4
2018-04-16T22:57:33.580Z,4.5
2018-04-16T22:58:35.133Z,3.1
2018-04-16T22:59:36.823Z,3.2
2018-04-16T23:00:38.736Z,3.1
2018-04-16T23:01:40.349Z,3.4
2018-04-16T23:02:41.917Z,5.9
2018-04-16T23:03:43.484Z,5.1
2018-04-16T23:04:45.074Z,5.3
2018-04-16T23:05:46.716Z,4.6
2018-04-16T23:06:48.282Z,4.3
2018-04-16T23:07:49.909Z,3.1
2018-04-16T23:08:51.575Z,2.4
2018-04-16T23:09:53.130Z,1.0
2018-04-16T23:10:54.702Z,1.0
2018-04-16T23:11:56.261Z,0.0
2018-04-16T23:12:57.814Z,0.0
2018-04-16T23:13:59.394Z,0.0
2018-04-16T23:15:00.983Z,0.0
2018-04-16T23:16:02.553Z,0.0
2018-04-16T23:17:04.127Z,0.0
2018-04-16T23:18:05.685Z,0.0
2018-04-16T23:19:07.252Z,0.0
2018-04-16T23:20:08.812Z,0.0
2018-04-16T23:21:10.432Z,0.0
2018-04-16T23:22:11.986Z,0.0
2018-04-16T23:23:13.544Z,0.0
2018-04-16T23:24:15.103Z,0.0
2018-04-16T23:25:16.670Z,0.0
2018-04-16T23:26:18.220Z,0.0
2018-04-16T23:27:19.776Z,0.0
2018-04-16T23:28:21.392Z,0.0
2018-04-16T23:29:22.940Z,0.0
2018-04-16T23:30:24.491Z,0.0
2018-04-16T23:31:26.059Z,0.0
2018-04-16T23:32:27.603Z,0.0
2018-04-16T23:33:29.155Z,0.0
2018-04-16T23:34:30.746Z,0.0
2018-04-16T23:35:32.669Z,0.0
2018-04-16T23:36:34.233Z,0.0
2018-04-16T23:37:35.798Z,0.0
2018-04-16T23:38:37.358Z,0.0
2018-04-16T23:39:38.907Z,0.0
2018-04-16T23:40:40.474Z,0.0
2018-04-16T23:41:42.036Z,0.0
2018-04-16T23:42:43.598Z,0.0
2018-04-16T23:43:45.145Z,0.0
2018-04-16T23:44:46.710Z,0.0
2018-04-16T23:45:48.260Z,0.0
2018-04-16T23:46:49.817Z,0.0
2018-04-16T23:47:51.364Z,0.0
2018-04-16T23:48:52.921Z,0.0
2018-04-16T23:49:54.488Z,0.0
2018-04-16T23:50:56.052Z,0.0
2018-04-16T23:51:57.614Z,0.0
2018-04-16T23:52:59.175Z,0.0
2018-04-16T23:54:00.761Z,0.0
2018-04-16T23:55:02.317Z,0.0
2018-04-16T23:56:03.864Z,0.0
2018-04-16T23:57:05.414Z,0.0
2018-04-16T23:58:06.971Z,0.0
2018-04-16T23:59:08.563Z,0.0
